sensor_id;sensor_type;location;lat;lon;timestamp;noise_LAeq;noise_LA_min;noise_LA_max;noise_LA01;noise_LA95
69619;Laerm;57653;51.434;5.984;2023-03-17T00:00:09;30.17;29.20;31.31;;
69619;Laerm;57653;51.434;5.984;2023-03-17T00:00:21;30.74;29.28;32.66;;
69619;Laerm;57653;51.434;5.984;2023-03-17T00:00:32;30.70;29.12;33.95;;
69619;Laerm;57653;51.434;5.984;2023-03-17T00:00:43;30.03;28.95;31.63;;
69619;Laerm;57653;51.434;5.984;2023-03-17T00:00:54;30.02;28.56;32.44;;
69619;Laerm;57653;51.434;5.984;2023-03-17T00:01:05;30.29;28.92;37.94;;
69619;Laerm;57653;51.434;5.984;2023-03-17T00:01:15;30.07;28.87;37.73;;
69619;Laerm;57653;51.434;5.984;2023-03-17T00:01:26;29.91;28.59;31.21;;
69619;Laerm;57653;51.434;5.984;2023-03-17T00:01:36;29.86;28.65;30.97;;
69619;Laerm;57653;51.434;5.984;2023-03-17T00:01:47;29.76;28.71;30.67;;
69619;Laerm;57653;51.434;5.984;2023-03-17T00:02:03;29.96;28.55;38.87;;
69619;Laerm;57653;51.434;5.984;2023-03-17T00:02:13;29.82;28.85;31.04;;
69619;Laerm;57653;51.434;5.984;2023-03-17T00:02:23;29.78;28.71;30.80;;
69619;Laerm;57653;51.434;5.984;2023-03-17T00:02:34;29.86;28.72;30.93;;
69619;Laerm;57653;51.434;5.984;2023-03-17T00:02:45;29.87;28.86;31.08;;
69619;Laerm;57653;51.434;5.984;2023-03-17T00:02:55;30.02;28.81;39.39;;
69619;Laerm;57653;51.434;5.984;2023-03-17T00:03:17;29.87;28.56;35.61;;
69619;Laerm;57653;51.434;5.984;2023-03-17T00:03:28;29.83;28.48;38.97;;
69619;Laerm;57653;51.434;5.984;2023-03-17T00:03:40;29.77;28.73;30.85;;
69619;Laerm;57653;51.434;5.984;2023-03-17T00:03:51;29.72;28.49;30.72;;
69619;Laerm;57653;51.434;5.984;2023-03-17T00:04:01;29.77;28.74;30.80;;
69619;Laerm;57653;51.434;5.984;2023-03-17T00:04:12;29.78;28.91;30.90;;
69619;Laerm;57653;51.434;5.984;2023-03-17T00:04:22;29.78;28.74;30.85;;
69619;Laerm;57653;51.434;5.984;2023-03-17T00:04:33;29.88;28.47;31.28;;
69619;Laerm;57653;51.434;5.984;2023-03-17T00:04:44;29.89;28.72;30.75;;
69619;Laerm;57653;51.434;5.984;2023-03-17T00:04:54;29.91;28.62;31.04;;
69619;Laerm;57653;51.434;5.984;2023-03-17T00:05:18;30.03;28.76;31.23;;
69619;Laerm;57653;51.434;5.984;2023-03-17T00:05:29;30.14;28.82;31.45;;
69619;Laerm;57653;51.434;5.984;2023-03-17T00:05:40;30.12;28.88;33.78;;
69619;Laerm;57653;51.434;5.984;2023-03-17T00:05:51;29.92;28.41;30.96;;
69619;Laerm;57653;51.434;5.984;2023-03-17T00:06:02;30.08;28.99;31.40;;
69619;Laerm;57653;51.434;5.984;2023-03-17T00:06:15;30.00;28.82;31.26;;
69619;Laerm;57653;51.434;5.984;2023-03-17T00:06:27;29.82;28.72;31.07;;
69619;Laerm;57653;51.434;5.984;2023-03-17T00:06:39;30.03;28.78;36.06;;
69619;Laerm;57653;51.434;5.984;2023-03-17T00:06:50;29.79;28.63;30.75;;
69619;Laerm;57653;51.434;5.984;2023-03-17T00:07:01;29.83;28.75;30.87;;
69619;Laerm;57653;51.434;5.984;2023-03-17T00:07:14;29.79;28.77;30.82;;
69619;Laerm;57653;51.434;5.984;2023-03-17T00:07:26;29.78;28.51;31.02;;
69619;Laerm;57653;51.434;5.984;2023-03-17T00:07:36;29.75;28.41;30.82;;
69619;Laerm;57653;51.434;5.984;2023-03-17T00:07:47;29.83;28.44;30.98;;
69619;Laerm;57653;51.434;5.984;2023-03-17T00:08:03;29.83;28.72;30.97;;
69619;Laerm;57653;51.434;5.984;2023-03-17T00:08:21;29.85;28.72;30.90;;
69619;Laerm;57653;51.434;5.984;2023-03-17T00:08:32;29.89;28.74;30.86;;
69619;Laerm;57653;51.434;5.984;2023-03-17T00:08:43;29.89;28.89;30.78;;
69619;Laerm;57653;51.434;5.984;2023-03-17T00:08:55;29.87;28.77;30.99;;
69619;Laerm;57653;51.434;5.984;2023-03-17T00:09:10;29.85;28.83;31.01;;
69619;Laerm;57653;51.434;5.984;2023-03-17T00:09:23;29.79;28.61;30.90;;
69619;Laerm;57653;51.434;5.984;2023-03-17T00:09:33;29.82;28.92;31.44;;
69619;Laerm;57653;51.434;5.984;2023-03-17T00:09:44;29.70;28.56;30.83;;
69619;Laerm;57653;51.434;5.984;2023-03-17T00:09:54;29.73;28.77;30.71;;
69619;Laerm;57653;51.434;5.984;2023-03-17T00:10:08;29.71;28.68;30.78;;
69619;Laerm;57653;51.434;5.984;2023-03-17T00:10:23;29.75;28.61;31.07;;
69619;Laerm;57653;51.434;5.984;2023-03-17T00:10:34;29.75;28.73;30.99;;
69619;Laerm;57653;51.434;5.984;2023-03-17T00:10:44;30.14;29.09;31.56;;
69619;Laerm;57653;51.434;5.984;2023-03-17T00:10:54;29.89;28.82;30.91;;
69619;Laerm;57653;51.434;5.984;2023-03-17T00:11:05;29.83;28.41;36.81;;
69619;Laerm;57653;51.434;5.984;2023-03-17T00:11:19;29.82;28.87;31.11;;
69619;Laerm;57653;51.434;5.984;2023-03-17T00:11:30;30.58;28.66;34.08;;
69619;Laerm;57653;51.434;5.984;2023-03-17T00:11:40;51.31;32.77;60.24;;
69619;Laerm;57653;51.434;5.984;2023-03-17T00:11:51;60.33;56.76;63.48;;
69619;Laerm;57653;51.434;5.984;2023-03-17T00:12:05;60.49;57.70;63.09;;
69619;Laerm;57653;51.434;5.984;2023-03-17T00:12:15;55.85;39.93;61.85;;
69619;Laerm;57653;51.434;5.984;2023-03-17T00:12:26;36.72;32.31;40.39;;
69619;Laerm;57653;51.434;5.984;2023-03-17T00:12:36;32.80;30.39;39.15;;
69619;Laerm;57653;51.434;5.984;2023-03-17T00:12:48;31.74;30.11;34.53;;
69619;Laerm;57653;51.434;5.984;2023-03-17T00:12:58;31.21;28.93;33.41;;
69619;Laerm;57653;51.434;5.984;2023-03-17T00:13:09;30.42;29.19;31.84;;
69619;Laerm;57653;51.434;5.984;2023-03-17T00:13:20;30.25;28.97;31.68;;
69619;Laerm;57653;51.434;5.984;2023-03-17T00:13:30;30.37;29.00;32.16;;
69619;Laerm;57653;51.434;5.984;2023-03-17T00:13:41;30.72;29.46;32.29;;
69619;Laerm;57653;51.434;5.984;2023-03-17T00:13:52;30.40;28.98;32.49;;
69619;Laerm;57653;51.434;5.984;2023-03-17T00:14:03;29.97;28.70;31.30;;
69619;Laerm;57653;51.434;5.984;2023-03-17T00:14:13;29.96;28.75;31.08;;
69619;Laerm;57653;51.434;5.984;2023-03-17T00:14:23;29.92;28.78;31.32;;
69619;Laerm;57653;51.434;5.984;2023-03-17T00:14:34;30.19;28.93;32.23;;
69619;Laerm;57653;51.434;5.984;2023-03-17T00:14:45;29.94;28.45;31.34;;
69619;Laerm;57653;51.434;5.984;2023-03-17T00:14:55;29.87;28.71;30.90;;
69619;Laerm;57653;51.434;5.984;2023-03-17T00:15:06;29.98;28.78;31.11;;
69619;Laerm;57653;51.434;5.984;2023-03-17T00:15:16;29.83;28.65;31.02;;
69619;Laerm;57653;51.434;5.984;2023-03-17T00:15:27;29.81;28.50;30.92;;
69619;Laerm;57653;51.434;5.984;2023-03-17T00:15:37;29.84;28.77;30.95;;
69619;Laerm;57653;51.434;5.984;2023-03-17T00:15:50;29.81;28.56;35.36;;
69619;Laerm;57653;51.434;5.984;2023-03-17T00:16:02;29.71;28.49;30.75;;
69619;Laerm;57653;51.434;5.984;2023-03-17T00:16:35;29.79;28.60;31.66;;
69619;Laerm;57653;51.434;5.984;2023-03-17T00:16:46;29.69;28.55;30.93;;
69619;Laerm;57653;51.434;5.984;2023-03-17T00:16:58;29.67;28.43;30.62;;
69619;Laerm;57653;51.434;5.984;2023-03-17T00:17:10;29.73;28.40;30.77;;
69619;Laerm;57653;51.434;5.984;2023-03-17T00:17:21;29.74;28.71;30.56;;
69619;Laerm;57653;51.434;5.984;2023-03-17T00:17:31;29.73;28.75;30.76;;
69619;Laerm;57653;51.434;5.984;2023-03-17T00:17:42;29.78;28.81;31.04;;
69619;Laerm;57653;51.434;5.984;2023-03-17T00:17:53;29.72;28.57;30.95;;
69619;Laerm;57653;51.434;5.984;2023-03-17T00:18:05;29.85;28.65;36.59;;
69619;Laerm;57653;51.434;5.984;2023-03-17T00:18:20;29.90;28.46;36.99;;
69619;Laerm;57653;51.434;5.984;2023-03-17T00:18:31;29.81;28.76;34.41;;
69619;Laerm;57653;51.434;5.984;2023-03-17T00:18:44;29.80;28.75;31.13;;
69619;Laerm;57653;51.434;5.984;2023-03-17T00:18:55;29.93;28.94;31.27;;
69619;Laerm;57653;51.434;5.984;2023-03-17T00:19:08;29.99;28.67;31.55;;
69619;Laerm;57653;51.434;5.984;2023-03-17T00:19:24;30.01;28.92;31.31;;
69619;Laerm;57653;51.434;5.984;2023-03-17T00:19:35;30.04;28.77;35.30;;
69619;Laerm;57653;51.434;5.984;2023-03-17T00:19:45;29.97;28.91;30.83;;
69619;Laerm;57653;51.434;5.984;2023-03-17T00:19:56;29.80;28.54;30.99;;
69619;Laerm;57653;51.434;5.984;2023-03-17T00:20:10;29.77;28.56;30.76;;
69619;Laerm;57653;51.434;5.984;2023-03-17T00:20:30;29.75;28.62;30.89;;
69619;Laerm;57653;51.434;5.984;2023-03-17T00:20:41;29.76;28.26;31.75;;
69619;Laerm;57653;51.434;5.984;2023-03-17T00:20:52;29.74;28.47;30.75;;
69619;Laerm;57653;51.434;5.984;2023-03-17T00:21:02;29.75;28.74;30.77;;
69619;Laerm;57653;51.434;5.984;2023-03-17T00:21:14;29.89;28.89;30.81;;
69619;Laerm;57653;51.434;5.984;2023-03-17T00:21:29;29.80;28.77;31.00;;
69619;Laerm;57653;51.434;5.984;2023-03-17T00:21:40;29.79;28.75;30.73;;
69619;Laerm;57653;51.434;5.984;2023-03-17T00:21:51;29.94;28.70;31.17;;
69619;Laerm;57653;51.434;5.984;2023-03-17T00:22:01;38.05;29.44;47.08;;
69619;Laerm;57653;51.434;5.984;2023-03-17T00:22:13;60.85;45.79;65.54;;
69619;Laerm;57653;51.434;5.984;2023-03-17T00:22:25;63.91;60.87;66.62;;
69619;Laerm;57653;51.434;5.984;2023-03-17T00:22:36;64.45;51.27;68.54;;
69619;Laerm;57653;51.434;5.984;2023-03-17T00:22:46;47.86;39.21;58.19;;
69619;Laerm;57653;51.434;5.984;2023-03-17T00:22:58;37.82;33.62;44.21;;
69619;Laerm;57653;51.434;5.984;2023-03-17T00:23:20;33.65;31.33;37.66;;
69619;Laerm;57653;51.434;5.984;2023-03-17T00:23:30;31.26;29.38;34.44;;
69619;Laerm;57653;51.434;5.984;2023-03-17T00:23:42;30.93;29.53;32.51;;
69619;Laerm;57653;51.434;5.984;2023-03-17T00:23:54;30.58;29.34;31.84;;
69619;Laerm;57653;51.434;5.984;2023-03-17T00:24:05;30.26;28.64;31.95;;
69619;Laerm;57653;51.434;5.984;2023-03-17T00:24:15;30.14;28.99;31.27;;
69619;Laerm;57653;51.434;5.984;2023-03-17T00:24:26;30.58;29.22;32.94;;
69619;Laerm;57653;51.434;5.984;2023-03-17T00:24:37;30.11;28.90;33.51;;
69619;Laerm;57653;51.434;5.984;2023-03-17T00:24:47;30.09;28.95;32.08;;
69619;Laerm;57653;51.434;5.984;2023-03-17T00:24:57;29.83;28.80;30.94;;
69619;Laerm;57653;51.434;5.984;2023-03-17T00:25:29;30.01;28.89;33.10;;
69619;Laerm;57653;51.434;5.984;2023-03-17T00:25:38;29.94;28.66;39.18;;
69619;Laerm;57653;51.434;5.984;2023-03-17T00:25:52;29.81;28.51;31.03;;
69619;Laerm;57653;51.434;5.984;2023-03-17T00:26:03;29.76;28.61;30.85;;
69619;Laerm;57653;51.434;5.984;2023-03-17T00:26:13;29.87;28.63;35.76;;
69619;Laerm;57653;51.434;5.984;2023-03-17T00:26:24;29.68;28.58;30.98;;
69619;Laerm;57653;51.434;5.984;2023-03-17T00:26:35;29.72;28.52;30.89;;
69619;Laerm;57653;51.434;5.984;2023-03-17T00:26:45;29.68;28.67;30.78;;
69619;Laerm;57653;51.434;5.984;2023-03-17T00:26:56;29.75;28.74;35.92;;
69619;Laerm;57653;51.434;5.984;2023-03-17T00:27:11;29.74;28.31;30.92;;
69619;Laerm;57653;51.434;5.984;2023-03-17T00:27:22;29.76;28.40;33.86;;
69619;Laerm;57653;51.434;5.984;2023-03-17T00:27:32;29.63;28.67;30.67;;
69619;Laerm;57653;51.434;5.984;2023-03-17T00:27:43;29.68;28.68;31.08;;
69619;Laerm;57653;51.434;5.984;2023-03-17T00:27:54;29.72;28.56;32.46;;
69619;Laerm;57653;51.434;5.984;2023-03-17T00:28:15;29.92;28.56;37.28;;
69619;Laerm;57653;51.434;5.984;2023-03-17T00:28:26;29.64;28.47;30.78;;
69619;Laerm;57653;51.434;5.984;2023-03-17T00:28:36;29.70;28.50;32.74;;
69619;Laerm;57653;51.434;5.984;2023-03-17T00:28:47;29.59;28.41;31.17;;
69619;Laerm;57653;51.434;5.984;2023-03-17T00:28:58;29.60;28.43;30.63;;
69619;Laerm;57653;51.434;5.984;2023-03-17T00:29:08;29.83;28.09;34.05;;
69619;Laerm;57653;51.434;5.984;2023-03-17T00:29:18;29.64;28.42;30.74;;
69619;Laerm;57653;51.434;5.984;2023-03-17T00:29:29;29.62;28.61;30.75;;
69619;Laerm;57653;51.434;5.984;2023-03-17T00:29:39;29.60;28.50;30.70;;
69619;Laerm;57653;51.434;5.984;2023-03-17T00:29:50;29.74;28.39;36.41;;
69619;Laerm;57653;51.434;5.984;2023-03-17T00:30:00;29.54;28.31;30.65;;
69619;Laerm;57653;51.434;5.984;2023-03-17T00:30:11;29.61;28.37;30.67;;
69619;Laerm;57653;51.434;5.984;2023-03-17T00:30:21;29.58;28.52;32.34;;
69619;Laerm;57653;51.434;5.984;2023-03-17T00:30:32;30.20;28.51;42.41;;
69619;Laerm;57653;51.434;5.984;2023-03-17T00:30:42;29.67;28.35;33.74;;
69619;Laerm;57653;51.434;5.984;2023-03-17T00:30:54;29.65;28.35;31.15;;
69619;Laerm;57653;51.434;5.984;2023-03-17T00:31:11;29.60;28.52;30.76;;
69619;Laerm;57653;51.434;5.984;2023-03-17T00:31:23;29.58;28.30;30.63;;
69619;Laerm;57653;51.434;5.984;2023-03-17T00:31:34;29.59;28.28;30.78;;
69619;Laerm;57653;51.434;5.984;2023-03-17T00:31:44;29.59;28.53;30.62;;
69619;Laerm;57653;51.434;5.984;2023-03-17T00:31:55;29.61;28.42;30.58;;
69619;Laerm;57653;51.434;5.984;2023-03-17T00:32:15;29.55;28.50;30.56;;
69619;Laerm;57653;51.434;5.984;2023-03-17T00:32:26;29.59;28.33;30.67;;
69619;Laerm;57653;51.434;5.984;2023-03-17T00:32:36;29.57;28.56;30.78;;
69619;Laerm;57653;51.434;5.984;2023-03-17T00:32:48;29.58;28.46;30.59;;
69619;Laerm;57653;51.434;5.984;2023-03-17T00:32:59;29.57;28.35;30.70;;
69619;Laerm;57653;51.434;5.984;2023-03-17T00:33:10;29.53;28.42;30.72;;
69619;Laerm;57653;51.434;5.984;2023-03-17T00:33:22;29.62;28.39;34.46;;
69619;Laerm;57653;51.434;5.984;2023-03-17T00:33:33;30.22;28.34;41.82;;
69619;Laerm;57653;51.434;5.984;2023-03-17T00:33:46;29.66;28.43;33.34;;
69619;Laerm;57653;51.434;5.984;2023-03-17T00:33:57;29.63;28.42;37.04;;
69619;Laerm;57653;51.434;5.984;2023-03-17T00:34:09;30.42;28.43;42.80;;
69619;Laerm;57653;51.434;5.984;2023-03-17T00:34:21;29.61;28.42;31.28;;
69619;Laerm;57653;51.434;5.984;2023-03-17T00:34:32;29.71;28.12;36.12;;
69619;Laerm;57653;51.434;5.984;2023-03-17T00:34:43;29.69;28.31;33.52;;
69619;Laerm;57653;51.434;5.984;2023-03-17T00:34:54;29.62;28.26;36.55;;
69619;Laerm;57653;51.434;5.984;2023-03-17T00:35:18;29.49;28.25;30.79;;
69619;Laerm;57653;51.434;5.984;2023-03-17T00:35:28;29.59;28.04;35.04;;
69619;Laerm;57653;51.434;5.984;2023-03-17T00:35:39;29.57;28.47;30.60;;
69619;Laerm;57653;51.434;5.984;2023-03-17T00:35:49;29.54;28.53;31.04;;
69619;Laerm;57653;51.434;5.984;2023-03-17T00:36:01;29.57;28.53;30.92;;
69619;Laerm;57653;51.434;5.984;2023-03-17T00:36:12;29.60;28.28;30.52;;
69619;Laerm;57653;51.434;5.984;2023-03-17T00:36:25;29.54;28.49;30.50;;
69619;Laerm;57653;51.434;5.984;2023-03-17T00:36:37;29.50;28.53;30.50;;
69619;Laerm;57653;51.434;5.984;2023-03-17T00:36:47;29.61;28.17;30.90;;
69619;Laerm;57653;51.434;5.984;2023-03-17T00:36:59;29.58;28.47;30.88;;
69619;Laerm;57653;51.434;5.984;2023-03-17T00:37:11;29.53;28.16;30.58;;
69619;Laerm;57653;51.434;5.984;2023-03-17T00:37:21;29.55;28.62;30.59;;
69619;Laerm;57653;51.434;5.984;2023-03-17T00:37:32;29.66;28.45;30.81;;
69619;Laerm;57653;51.434;5.984;2023-03-17T00:37:42;29.58;28.16;30.67;;
69619;Laerm;57653;51.434;5.984;2023-03-17T00:37:54;29.42;28.35;30.35;;
69619;Laerm;57653;51.434;5.984;2023-03-17T00:38:05;29.42;28.46;30.58;;
69619;Laerm;57653;51.434;5.984;2023-03-17T00:38:16;29.44;28.32;30.63;;
69619;Laerm;57653;51.434;5.984;2023-03-17T00:38:26;29.43;28.16;30.55;;
69619;Laerm;57653;51.434;5.984;2023-03-17T00:38:36;29.47;28.32;30.74;;
69619;Laerm;57653;51.434;5.984;2023-03-17T00:38:47;29.43;28.07;30.47;;
69619;Laerm;57653;51.434;5.984;2023-03-17T00:38:58;29.45;28.36;30.63;;
69619;Laerm;57653;51.434;5.984;2023-03-17T00:39:12;29.40;28.44;30.46;;
69619;Laerm;57653;51.434;5.984;2023-03-17T00:39:23;29.34;28.08;30.82;;
69619;Laerm;57653;51.434;5.984;2023-03-17T00:39:34;29.38;28.20;30.51;;
69619;Laerm;57653;51.434;5.984;2023-03-17T00:39:44;29.36;28.18;30.38;;
69619;Laerm;57653;51.434;5.984;2023-03-17T00:39:55;29.34;28.49;30.53;;
69619;Laerm;57653;51.434;5.984;2023-03-17T00:40:07;29.32;28.10;30.26;;
69619;Laerm;57653;51.434;5.984;2023-03-17T00:40:19;29.37;28.13;30.48;;
69619;Laerm;57653;51.434;5.984;2023-03-17T00:40:30;29.36;28.10;30.50;;
69619;Laerm;57653;51.434;5.984;2023-03-17T00:40:41;29.34;27.89;30.33;;
69619;Laerm;57653;51.434;5.984;2023-03-17T00:40:52;29.30;28.33;30.27;;
69619;Laerm;57653;51.434;5.984;2023-03-17T00:41:03;29.31;27.97;30.37;;
69619;Laerm;57653;51.434;5.984;2023-03-17T00:41:13;29.31;27.87;30.54;;
69619;Laerm;57653;51.434;5.984;2023-03-17T00:41:24;29.35;27.97;30.38;;
69619;Laerm;57653;51.434;5.984;2023-03-17T00:41:34;29.26;28.22;30.91;;
69619;Laerm;57653;51.434;5.984;2023-03-17T00:41:44;29.31;28.15;30.28;;
69619;Laerm;57653;51.434;5.984;2023-03-17T00:41:55;29.31;28.29;30.21;;
69619;Laerm;57653;51.434;5.984;2023-03-17T00:42:05;29.29;28.01;30.32;;
69619;Laerm;57653;51.434;5.984;2023-03-17T00:42:16;29.32;28.35;30.28;;
69619;Laerm;57653;51.434;5.984;2023-03-17T00:42:26;29.26;28.19;30.26;;
69619;Laerm;57653;51.434;5.984;2023-03-17T00:42:37;29.33;27.94;30.33;;
69619;Laerm;57653;51.434;5.984;2023-03-17T00:42:49;29.30;28.21;30.27;;
69619;Laerm;57653;51.434;5.984;2023-03-17T00:42:59;29.25;28.08;30.26;;
69619;Laerm;57653;51.434;5.984;2023-03-17T00:43:11;29.28;28.21;30.24;;
69619;Laerm;57653;51.434;5.984;2023-03-17T00:43:22;29.28;27.92;30.31;;
69619;Laerm;57653;51.434;5.984;2023-03-17T00:43:32;29.30;28.23;30.23;;
69619;Laerm;57653;51.434;5.984;2023-03-17T00:43:43;29.31;28.37;30.17;;
69619;Laerm;57653;51.434;5.984;2023-03-17T00:43:53;29.31;28.14;30.38;;
69619;Laerm;57653;51.434;5.984;2023-03-17T00:44:04;29.30;27.95;30.31;;
69619;Laerm;57653;51.434;5.984;2023-03-17T00:44:14;29.27;28.25;30.14;;
69619;Laerm;57653;51.434;5.984;2023-03-17T00:44:24;29.29;28.04;30.54;;
69619;Laerm;57653;51.434;5.984;2023-03-17T00:44:35;29.32;28.27;30.27;;
69619;Laerm;57653;51.434;5.984;2023-03-17T00:44:45;29.29;28.07;30.27;;
69619;Laerm;57653;51.434;5.984;2023-03-17T00:44:56;29.28;28.28;30.70;;
69619;Laerm;57653;51.434;5.984;2023-03-17T00:45:07;29.30;28.14;30.26;;
69619;Laerm;57653;51.434;5.984;2023-03-17T00:45:18;29.26;28.15;30.23;;
69619;Laerm;57653;51.434;5.984;2023-03-17T00:45:29;29.33;28.26;30.42;;
69619;Laerm;57653;51.434;5.984;2023-03-17T00:45:39;29.25;28.28;30.25;;
69619;Laerm;57653;51.434;5.984;2023-03-17T00:45:50;29.28;28.31;30.64;;
69619;Laerm;57653;51.434;5.984;2023-03-17T00:46:00;29.29;28.07;30.27;;
69619;Laerm;57653;51.434;5.984;2023-03-17T00:46:14;29.29;27.93;30.41;;
69619;Laerm;57653;51.434;5.984;2023-03-17T00:46:27;29.28;28.15;30.47;;
69619;Laerm;57653;51.434;5.984;2023-03-17T00:46:37;29.30;28.22;30.34;;
69619;Laerm;57653;51.434;5.984;2023-03-17T00:46:48;29.24;28.01;30.28;;
69619;Laerm;57653;51.434;5.984;2023-03-17T00:46:58;29.31;28.26;30.32;;
69619;Laerm;57653;51.434;5.984;2023-03-17T00:47:09;29.31;27.88;30.17;;
69619;Laerm;57653;51.434;5.984;2023-03-17T00:47:20;29.28;28.19;30.38;;
69619;Laerm;57653;51.434;5.984;2023-03-17T00:47:31;29.27;28.27;30.30;;
69619;Laerm;57653;51.434;5.984;2023-03-17T00:47:42;29.23;28.07;30.33;;
69619;Laerm;57653;51.434;5.984;2023-03-17T00:47:53;29.35;28.23;30.32;;
69619;Laerm;57653;51.434;5.984;2023-03-17T00:48:09;29.33;28.22;30.31;;
69619;Laerm;57653;51.434;5.984;2023-03-17T00:48:22;29.35;28.03;30.52;;
69619;Laerm;57653;51.434;5.984;2023-03-17T00:48:33;29.34;28.34;30.36;;
69619;Laerm;57653;51.434;5.984;2023-03-17T00:48:43;29.28;28.14;30.28;;
69619;Laerm;57653;51.434;5.984;2023-03-17T00:48:54;29.32;28.24;30.38;;
69619;Laerm;57653;51.434;5.984;2023-03-17T00:49:17;29.25;27.99;30.14;;
69619;Laerm;57653;51.434;5.984;2023-03-17T00:49:28;29.30;28.04;30.44;;
69619;Laerm;57653;51.434;5.984;2023-03-17T00:49:38;29.28;28.40;30.39;;
69619;Laerm;57653;51.434;5.984;2023-03-17T00:49:49;29.32;28.22;30.30;;
69619;Laerm;57653;51.434;5.984;2023-03-17T00:49:59;29.29;28.36;30.29;;
69619;Laerm;57653;51.434;5.984;2023-03-17T00:50:10;29.24;28.17;30.28;;
69619;Laerm;57653;51.434;5.984;2023-03-17T00:50:22;29.33;27.97;30.27;;
69619;Laerm;57653;51.434;5.984;2023-03-17T00:50:33;29.24;27.89;30.32;;
69619;Laerm;57653;51.434;5.984;2023-03-17T00:50:44;29.28;28.11;30.22;;
69619;Laerm;57653;51.434;5.984;2023-03-17T00:50:54;29.29;28.22;30.39;;
69619;Laerm;57653;51.434;5.984;2023-03-17T00:51:05;29.29;28.10;30.18;;
69619;Laerm;57653;51.434;5.984;2023-03-17T00:51:16;29.27;28.34;30.27;;
69619;Laerm;57653;51.434;5.984;2023-03-17T00:51:26;29.31;27.97;30.18;;
69619;Laerm;57653;51.434;5.984;2023-03-17T00:51:36;29.32;28.39;30.28;;
69619;Laerm;57653;51.434;5.984;2023-03-17T00:51:47;29.30;28.30;30.57;;
69619;Laerm;57653;51.434;5.984;2023-03-17T00:51:57;29.30;28.20;30.69;;
69619;Laerm;57653;51.434;5.984;2023-03-17T00:52:07;29.25;28.23;30.54;;
69619;Laerm;57653;51.434;5.984;2023-03-17T00:52:18;29.22;28.07;30.41;;
69619;Laerm;57653;51.434;5.984;2023-03-17T00:52:29;29.24;28.33;30.21;;
69619;Laerm;57653;51.434;5.984;2023-03-17T00:52:39;29.28;28.07;30.27;;
69619;Laerm;57653;51.434;5.984;2023-03-17T00:52:50;29.22;27.94;30.24;;
69619;Laerm;57653;51.434;5.984;2023-03-17T00:53:01;29.29;28.33;30.53;;
69619;Laerm;57653;51.434;5.984;2023-03-17T00:53:14;29.26;28.10;30.29;;
69619;Laerm;57653;51.434;5.984;2023-03-17T00:53:24;29.30;28.16;30.26;;
69619;Laerm;57653;51.434;5.984;2023-03-17T00:53:35;29.29;28.09;30.50;;
69619;Laerm;57653;51.434;5.984;2023-03-17T00:53:46;29.39;27.91;34.92;;
69619;Laerm;57653;51.434;5.984;2023-03-17T00:53:56;29.29;28.12;30.54;;
69619;Laerm;57653;51.434;5.984;2023-03-17T00:54:08;29.23;28.11;30.27;;
69619;Laerm;57653;51.434;5.984;2023-03-17T00:54:19;29.21;28.20;30.33;;
69619;Laerm;57653;51.434;5.984;2023-03-17T00:54:29;29.26;27.98;30.39;;
69619;Laerm;57653;51.434;5.984;2023-03-17T00:54:40;29.27;28.27;31.91;;
69619;Laerm;57653;51.434;5.984;2023-03-17T00:54:50;29.27;28.33;30.59;;
69619;Laerm;57653;51.434;5.984;2023-03-17T00:55:01;29.24;28.07;30.24;;
69619;Laerm;57653;51.434;5.984;2023-03-17T00:55:11;29.21;27.99;30.23;;
69619;Laerm;57653;51.434;5.984;2023-03-17T00:55:23;29.35;28.04;30.87;;
69619;Laerm;57653;51.434;5.984;2023-03-17T00:55:33;29.27;28.14;30.66;;
69619;Laerm;57653;51.434;5.984;2023-03-17T00:55:44;29.27;28.03;30.37;;
69619;Laerm;57653;51.434;5.984;2023-03-17T00:55:54;29.27;27.94;30.44;;
69619;Laerm;57653;51.434;5.984;2023-03-17T00:56:09;29.25;28.06;30.45;;
69619;Laerm;57653;51.434;5.984;2023-03-17T00:56:20;29.24;28.23;30.34;;
69619;Laerm;57653;51.434;5.984;2023-03-17T00:56:31;29.26;28.26;30.38;;
69619;Laerm;57653;51.434;5.984;2023-03-17T00:56:42;29.28;28.19;33.74;;
69619;Laerm;57653;51.434;5.984;2023-03-17T00:56:53;29.24;27.86;30.85;;
69619;Laerm;57653;51.434;5.984;2023-03-17T00:57:03;29.25;28.18;30.22;;
69619;Laerm;57653;51.434;5.984;2023-03-17T00:57:13;29.25;28.32;30.16;;
69619;Laerm;57653;51.434;5.984;2023-03-17T00:57:24;29.27;28.18;30.83;;
69619;Laerm;57653;51.434;5.984;2023-03-17T00:57:35;29.26;28.29;30.34;;
69619;Laerm;57653;51.434;5.984;2023-03-17T00:57:46;29.25;27.97;30.74;;
69619;Laerm;57653;51.434;5.984;2023-03-17T00:57:57;29.42;27.89;36.40;;
69619;Laerm;57653;51.434;5.984;2023-03-17T00:58:11;29.43;28.21;33.00;;
69619;Laerm;57653;51.434;5.984;2023-03-17T00:58:24;29.33;28.00;30.42;;
69619;Laerm;57653;51.434;5.984;2023-03-17T00:58:35;29.27;28.21;30.28;;
69619;Laerm;57653;51.434;5.984;2023-03-17T00:58:46;29.34;27.92;30.50;;
69619;Laerm;57653;51.434;5.984;2023-03-17T00:58:57;29.35;28.09;30.44;;
69619;Laerm;57653;51.434;5.984;2023-03-17T00:59:16;29.29;28.30;30.34;;
69619;Laerm;57653;51.434;5.984;2023-03-17T00:59:33;29.30;27.97;30.43;;
69619;Laerm;57653;51.434;5.984;2023-03-17T00:59:47;29.32;28.13;30.78;;
69619;Laerm;57653;51.434;5.984;2023-03-17T00:59:57;29.33;28.20;30.32;;
69619;Laerm;57653;51.434;5.984;2023-03-17T01:00:26;29.31;28.07;30.41;;
69619;Laerm;57653;51.434;5.984;2023-03-17T01:00:37;29.33;28.09;30.77;;
69619;Laerm;57653;51.434;5.984;2023-03-17T01:00:47;29.33;28.29;30.37;;
69619;Laerm;57653;51.434;5.984;2023-03-17T01:00:58;29.36;28.17;30.42;;
69619;Laerm;57653;51.434;5.984;2023-03-17T01:01:09;29.40;28.12;30.35;;
69619;Laerm;57653;51.434;5.984;2023-03-17T01:01:19;29.38;28.23;30.62;;
69619;Laerm;57653;51.434;5.984;2023-03-17T01:01:29;29.35;27.90;30.28;;
69619;Laerm;57653;51.434;5.984;2023-03-17T01:01:40;29.36;28.15;30.40;;
69619;Laerm;57653;51.434;5.984;2023-03-17T01:01:50;29.33;28.36;30.15;;
69619;Laerm;57653;51.434;5.984;2023-03-17T01:02:01;29.35;28.22;30.14;;
69619;Laerm;57653;51.434;5.984;2023-03-17T01:02:11;29.38;28.40;30.31;;
69619;Laerm;57653;51.434;5.984;2023-03-17T01:02:22;29.36;28.06;30.37;;
69619;Laerm;57653;51.434;5.984;2023-03-17T01:02:33;29.39;28.40;31.02;;
69619;Laerm;57653;51.434;5.984;2023-03-17T01:02:43;29.36;28.39;30.50;;
69619;Laerm;57653;51.434;5.984;2023-03-17T01:02:55;29.45;28.31;30.30;;
69619;Laerm;57653;51.434;5.984;2023-03-17T01:03:07;29.44;28.13;30.46;;
69619;Laerm;57653;51.434;5.984;2023-03-17T01:03:18;29.42;28.32;30.63;;
69619;Laerm;57653;51.434;5.984;2023-03-17T01:03:28;29.41;28.28;30.55;;
69619;Laerm;57653;51.434;5.984;2023-03-17T01:03:40;29.34;27.97;30.38;;
69619;Laerm;57653;51.434;5.984;2023-03-17T01:03:50;29.38;28.24;30.30;;
69619;Laerm;57653;51.434;5.984;2023-03-17T01:04:01;29.39;28.33;30.50;;
69619;Laerm;57653;51.434;5.984;2023-03-17T01:04:12;29.42;28.20;30.59;;
69619;Laerm;57653;51.434;5.984;2023-03-17T01:04:22;29.44;28.21;30.34;;
69619;Laerm;57653;51.434;5.984;2023-03-17T01:04:33;29.42;28.37;30.56;;
69619;Laerm;57653;51.434;5.984;2023-03-17T01:04:43;29.44;27.97;30.44;;
69619;Laerm;57653;51.434;5.984;2023-03-17T01:04:54;29.43;28.33;30.70;;
69619;Laerm;57653;51.434;5.984;2023-03-17T01:05:04;29.44;28.51;30.66;;